Kitchings Mill, South Carolina
Current Conditions -  °F | °C
As of 1:15 AM on Wednesday 22 Oct 2014 (Local Time) from KAIK Reporting Station
Clear Clear  
Wind Chill: 55°   Ceiling: Unl
Heat Index: 55°   Visibility: 10mi
Dew Point: 46°   Wind: 5mph
Humidity: 72%   Direction: 340°NNW
Pressure: 30"   Gusts: NA
Location:  33.5901°N, 81.3327°W
Report Text: KAIK 220515Z AUTO 34004KT 10SM CLR 13/08 A3000 RMK AO2 PNO
Loading
Personal Weather Stations






























Interactive Weather Map New forecast layout! Learn more

10-Day Weather Forecast

Advertisements
Track Severe Weather on mobile